Terminal Aerodrome Forecast
Issued by NWS

Home | Current Version | Previous Version | Text Only | Print | Product List | Glossary On
Versions: 1 2 3 4 5 6 7 8 9 10 11 12 13 14
000
FTUS46 KHNX 231957 AAA
TAFVIS
TAF AMD
KVIS 231957Z 2320/2418 34012KT P6SM -SHRA VCTS BKN050CB
      TEMPO 2320/2321 2SM SHRA OVC015
     FM240100 17004KT P6SM SCT050 BKN100
     FM240800 VRB03KT P6SM BKN025
      TEMPO 2412/2416 5SM BR BKN005=

USA.gov is the U.S. government's official web portal to all federal, state and local government web resources and services.